Maersk Memphis — WMMK — position and weather

sailwx.info

Track history (hours):
 
Tides and Currents Weather Stations Pressure Air Temp Water Temp Dewpoint Dewpoint Depression Visibility Wind Speed Wind Dir Waves Ship Positions

Maersk Memphis

Owner: MAERSK LINE, LIMITED, NORFOLK, VA. More information available from US FCC via Universal Licensing System and Coast Guard Vessel Documentation Center.

Last reported at 2017-Dec-18 16:14 UTC. Time now 2017-Dec-18 20:36 UTC.
Position N 31°13' E 032°21'.

Length 299 m; draft 12.2 m.

Type: Cargo ship. MMSI: 366337000.

Date/timePositionNaut miles runAvg speedWind from/ knotsBaromVisibWave heightAir tempDewpointWater temp
2017-Dec-18 16:14N 31°13' E 032°21'0 0.0
2017-Dec-18 15:59N 31°13' E 032°21'0 0.0
2017-Dec-18 15:26N 31°13' E 032°21'0 0.0
2017-Dec-18 14:59N 31°13' E 032°21'0 0.0
2017-Dec-18 14:20N 31°13' E 032°21'0 0.0
2017-Dec-18 13:59N 31°13' E 032°21'0 0.0
2017-Dec-18 13:29N 31°13' E 032°21'15 1.5
2017-Dec-18 03:23N 31°28' E 032°24'4 9.3
2017-Dec-18 03:00N 31°29' E 032°20'913.1
2017-Dec-18 02:20N 31°33' E 032°11'1515.8
2017-Dec-18 01:23N 31°44' E 031°59'615.2
2017-Dec-18 01:00N 31°46' E 031°53'915.9
2017-Dec-18 00:27N 31°48' E 031°42'1215.5
2017-Dec-17 23:40N 31°51' E 031°29'615.8
2017-Dec-17 23:19N 31°53' E 031°22'18116.0
2017-Dec-17 12:00N 32°36' E 027°54'19416.1 180 / 181016.410.8 20.516.419.2
2017-Dec-17 00:00N 33°30' E 024°12'18615.5 200 / 221014.610.8 18.012.719.0
2017-Dec-16 12:00N 34°18' E 020°36'19816.5 180 / 281012.0 5.4 19.015.718.5
2017-Dec-16 00:00N 35°06' E 016°42'11515.9 250 / 181012.110.8 19.015.718.2
2017-Dec-15 16:46N 35°41' E 014°28'416.2
2017-Dec-15 16:30N 35°43' E 014°23'816.8
2017-Dec-15 16:00N 35°48' E 014°15'816.4
2017-Dec-15 15:30N 35°53' E 014°06'816.4
2017-Dec-15 15:00N 35°57' E 013°58'816.5
2017-Dec-15 14:30N 36°02' E 013°50'816.6
2017-Dec-15 14:00N 36°07' E 013°41'4409.3
2017-Dec-15 14:00N 36°06' E 013°36'2322.8 220 / 181011.510.8 17.011.517.0
2017-Dec-15 13:00N 36°18' E 013°12'38914.8 250 / 191012.110.8 17.013.517.4
2017-Dec-14 10:36N 37°14' E 005°11'214.7
2017-Dec-14 10:30N 37°14' E 005°09'1414.9
2017-Dec-14 09:33N 37°12' E 004°52'115.1
2017-Dec-14 09:30N 37°12' E 004°51'815.2
2017-Dec-14 09:00N 37°11' E 004°41'815.6
2017-Dec-14 08:30N 37°10' E 004°32'815.7
2017-Dec-14 08:00N 37°09' E 004°22'815.4
2017-Dec-14 07:30N 37°08' E 004°12'815.5
2017-Dec-14 07:00N 37°07' E 004°02'815.6
2017-Dec-14 06:30N 37°06' E 003°53'816.2
2017-Dec-14 06:00N 37°04' E 003°43'816.1
2017-Dec-14 05:30N 37°02' E 003°33'816.1
2017-Dec-14 05:00N 37°01' E 003°23'815.6
2017-Dec-14 04:30N 36°60' E 003°14'815.7
2017-Dec-14 04:00N 36°59' E 003°04'815.6
2017-Dec-14 03:30N 36°58' E 002°54'815.7
2017-Dec-14 03:00N 36°57' E 002°44'36414.8
2017-Dec-13 02:26N 36°04' W 004°44'2014.5
2017-Dec-13 01:01N 36°02' W 005°09'016.4
2017-Dec-13 01:00N 36°02' W 005°09'815.4
2017-Dec-13 00:30N 36°04' W 005°18'612.2
2017-Dec-13 00:00N 36°08' W 005°24'2 3.2
2017-Dec-12 23:30N 36°08' W 005°26'0 0.3
2017-Dec-12 23:00N 36°08' W 005°26'0 0.0
2017-Dec-12 22:30N 36°08' W 005°26'0 0.0
2017-Dec-12 22:00N 36°08' W 005°26'0 0.0
2017-Dec-12 21:30N 36°08' W 005°26'0 0.0
2017-Dec-12 21:00N 36°08' W 005°26'0 0.0
2017-Dec-12 20:27N 36°08' W 005°26'7 0.4
2017-Dec-12 04:44N 36°04' W 005°20'2 5.5
2017-Dec-12 04:27N 36°02' W 005°19'2 4.1
2017-Dec-12 04:01N 36°01' W 005°18'5 9.8
2017-Dec-12 03:31N 35°59' W 005°23'713.3
2017-Dec-12 03:00N 35°57' W 005°31'612.5
2017-Dec-12 02:31N 35°55' W 005°39'612.0
2017-Dec-12 02:01N 35°54' W 005°46'611.7
2017-Dec-12 01:31N 35°54' W 005°53'611.4
2017-Dec-12 00:58N 35°54' W 006°01'611.6
2017-Dec-12 00:28N 35°54' W 006°08'511.0
2017-Dec-12 00:00N 35°54' W 006°14'810.7
2017-Dec-11 23:17N 35°54' W 006°24'98 9.5
2017-Dec-11 13:00N 36°06' W 008°24'38015.2 330 / 151007.410.8 16.012.418.4
2017-Dec-10 12:00N 38°12' W 015°54'16613.9 270 / 191022.510.8 19.017.418.9
2017-Dec-10 00:00N 39°00' W 019°18'5728.6 270 / 151029.010.8 17.017.018.2
2017-Dec-09 22:00N 38°06' W 019°42'16616.6 230 / 151029.210.8 19.013.818.5
2017-Dec-09 12:00N 39°42' W 022°36'   180 / 151030.710.8 19.017.417.6
Track history (hours):
 
Tides and Currents Weather Stations Pressure Air Temp Water Temp Dewpoint Dewpoint Depression Visibility Wind Speed Wind Dir Waves Ship Positions

Maersk Memphis

Owner: MAERSK LINE, LIMITED, NORFOLK, VA. More information available from US FCC via Universal Licensing System and Coast Guard Vessel Documentation Center.

Last reported at 2017-Dec-18 16:14 UTC. Time now 2017-Dec-18 20:36 UTC.
Position N 31°13' E 032°21'.

Length 299 m; draft 12.2 m.

Type: Cargo ship. MMSI: 366337000.

Date/timePositionNaut miles runAvg speedWind from/ knotsBaromVisibWave heightAir tempDewpointWater temp
2017-Dec-18 16:14N 31°13' E 032°21'0 0.0
2017-Dec-18 15:59N 31°13' E 032°21'0 0.0
2017-Dec-18 15:26N 31°13' E 032°21'0 0.0
2017-Dec-18 14:59N 31°13' E 032°21'0 0.0
2017-Dec-18 14:20N 31°13' E 032°21'0 0.0
2017-Dec-18 13:59N 31°13' E 032°21'0 0.0
2017-Dec-18 13:29N 31°13' E 032°21'15 1.5
2017-Dec-18 03:23N 31°28' E 032°24'4 9.3
2017-Dec-18 03:00N 31°29' E 032°20'913.1
2017-Dec-18 02:20N 31°33' E 032°11'1515.8
2017-Dec-18 01:23N 31°44' E 031°59'615.2
2017-Dec-18 01:00N 31°46' E 031°53'915.9
2017-Dec-18 00:27N 31°48' E 031°42'1215.5
2017-Dec-17 23:40N 31°51' E 031°29'615.8
2017-Dec-17 23:19N 31°53' E 031°22'18116.0
2017-Dec-17 12:00N 32°36' E 027°54'19416.1 180 / 181016.410.8 20.516.419.2
2017-Dec-17 00:00N 33°30' E 024°12'18615.5 200 / 221014.610.8 18.012.719.0
2017-Dec-16 12:00N 34°18' E 020°36'19816.5 180 / 281012.0 5.4 19.015.718.5
2017-Dec-16 00:00N 35°06' E 016°42'11515.9 250 / 181012.110.8 19.015.718.2
2017-Dec-15 16:46N 35°41' E 014°28'416.2
2017-Dec-15 16:30N 35°43' E 014°23'816.8
2017-Dec-15 16:00N 35°48' E 014°15'816.4
2017-Dec-15 15:30N 35°53' E 014°06'816.4
2017-Dec-15 15:00N 35°57' E 013°58'816.5
2017-Dec-15 14:30N 36°02' E 013°50'816.6
2017-Dec-15 14:00N 36°07' E 013°41'4409.3
2017-Dec-15 14:00N 36°06' E 013°36'2322.8 220 / 181011.510.8 17.011.517.0
2017-Dec-15 13:00N 36°18' E 013°12'38914.8 250 / 191012.110.8 17.013.517.4
2017-Dec-14 10:36N 37°14' E 005°11'214.7
2017-Dec-14 10:30N 37°14' E 005°09'1414.9
2017-Dec-14 09:33N 37°12' E 004°52'115.1
2017-Dec-14 09:30N 37°12' E 004°51'815.2
2017-Dec-14 09:00N 37°11' E 004°41'815.6
2017-Dec-14 08:30N 37°10' E 004°32'815.7
2017-Dec-14 08:00N 37°09' E 004°22'815.4
2017-Dec-14 07:30N 37°08' E 004°12'815.5
2017-Dec-14 07:00N 37°07' E 004°02'815.6
2017-Dec-14 06:30N 37°06' E 003°53'816.2
2017-Dec-14 06:00N 37°04' E 003°43'816.1
2017-Dec-14 05:30N 37°02' E 003°33'816.1
2017-Dec-14 05:00N 37°01' E 003°23'815.6
2017-Dec-14 04:30N 36°60' E 003°14'815.7
2017-Dec-14 04:00N 36°59' E 003°04'815.6
2017-Dec-14 03:30N 36°58' E 002°54'815.7
2017-Dec-14 03:00N 36°57' E 002°44'36414.8
2017-Dec-13 02:26N 36°04' W 004°44'2014.5
2017-Dec-13 01:01N 36°02' W 005°09'016.4
2017-Dec-13 01:00N 36°02' W 005°09'815.4
2017-Dec-13 00:30N 36°04' W 005°18'612.2
2017-Dec-13 00:00N 36°08' W 005°24'2 3.2
2017-Dec-12 23:30N 36°08' W 005°26'0 0.3
2017-Dec-12 23:00N 36°08' W 005°26'0 0.0
2017-Dec-12 22:30N 36°08' W 005°26'0 0.0
2017-Dec-12 22:00N 36°08' W 005°26'0 0.0
2017-Dec-12 21:30N 36°08' W 005°26'0 0.0
2017-Dec-12 21:00N 36°08' W 005°26'0 0.0
2017-Dec-12 20:27N 36°08' W 005°26'7 0.4
2017-Dec-12 04:44N 36°04' W 005°20'2 5.5
2017-Dec-12 04:27N 36°02' W 005°19'2 4.1
2017-Dec-12 04:01N 36°01' W 005°18'5 9.8
2017-Dec-12 03:31N 35°59' W 005°23'713.3
2017-Dec-12 03:00N 35°57' W 005°31'612.5
2017-Dec-12 02:31N 35°55' W 005°39'612.0
2017-Dec-12 02:01N 35°54' W 005°46'611.7
2017-Dec-12 01:31N 35°54' W 005°53'611.4
2017-Dec-12 00:58N 35°54' W 006°01'611.6
2017-Dec-12 00:28N 35°54' W 006°08'511.0
2017-Dec-12 00:00N 35°54' W 006°14'810.7
2017-Dec-11 23:17N 35°54' W 006°24'98 9.5
2017-Dec-11 13:00N 36°06' W 008°24'38015.2 330 / 151007.410.8 16.012.418.4
2017-Dec-10 12:00N 38°12' W 015°54'16613.9 270 / 191022.510.8 19.017.418.9
2017-Dec-10 00:00N 39°00' W 019°18'5728.6 270 / 151029.010.8 17.017.018.2
2017-Dec-09 22:00N 38°06' W 019°42'16616.6 230 / 151029.210.8 19.013.818.5
2017-Dec-09 12:00N 39°42' W 022°36'   180 / 151030.710.8 19.017.417.6

Dump ship's entire track history